logo
Search for airport 
image banner adimage banner adimage banner ad
image banner ad

ED2097 - Erlabrunn Kliniken

Located in Erlabrunn, Germany

ICAO - , IATA -

Data provided by Airmate  

General information

Coordinates: N50°28'19" E12°42'25"
Elevation is 2145 feet MSL.
 
View others Airports in Saxony

Operational data

Special qualification required
Current time UTC:
Current local time:
Weather at : LKKV - Karlovy Vary ( 33 km )
METAR: LKKV 301830Z VRB02KT 9999 FEW023TCU 14/11 Q1005
TAF: TAF LKKV 301700Z 3018/3118 19004KT 9999 SCT023 TEMPO 3023/3106 2000 BR BKN004 PROB30 TEMPO 3101/3106 0900 FG OVC002 BECMG 3107/3109 02008KT BECMG 3114/3116 5000 RA BR BKN010 TEMPO 3116/3118 2500 RA BR OVC006
View NOTAMs / SUP AIP / TFR affecting this airport [VIEW]
Communications frequencies: [VIEW]

Runways:

Airport contact information

Address: Erlabrunn Germany

Satellite view of ED2097